Time;durP1;ratioP1;P1;durP2;ratioP2;P2;SDS_P1;SDS_P2;PMS_P1;PMS_P2;Temp;Humidity;BMP_temperature;BMP_pressure;BME280_temperature;BME280_humidity;BME280_pressure;Samples;Min_cycle;Max_cycle;Signal;HPM_P1;HPM_P2
2024/04/05 00:01:10;;;;;;;2.40;0.68;;;;;;;11.33;100.00;100423.97;6193743;23;20028;-74
2024/04/05 00:03:37;;;;;;;2.47;1.00;;;;;;;11.35;100.00;100418.56;6190231;23;20618;-74
2024/04/05 00:06:05;;;;;;;2.58;1.00;;;;;;;11.41;100.00;100425.38;6207450;23;20180;-74
2024/04/05 00:08:33;;;;;;;2.58;0.85;;;;;;;11.38;100.00;100425.78;6183630;23;20024;-74
2024/04/05 00:11:01;;;;;;;2.83;0.70;;;;;;;11.39;100.00;100425.19;6159835;23;20035;-74
2024/04/05 00:13:27;;;;;;;2.10;0.68;;;;;;;11.37;100.00;100424.28;6185805;23;20099;-74
2024/04/05 00:15:56;;;;;;;0.85;0.52;;;;;;;11.42;100.00;100417.78;6193022;23;20036;-73
2024/04/05 00:18:24;;;;;;;0.85;0.30;;;;;;;11.44;100.00;100420.72;6208419;23;20047;-73
2024/04/05 00:20:53;;;;;;;2.97;0.82;;;;;;;11.49;100.00;100422.53;6208090;23;20020;-73
2024/04/05 00:23:19;;;;;;;3.67;0.85;;;;;;;11.55;100.00;100427.88;6194090;23;20132;-74
2024/04/05 00:25:47;;;;;;;3.58;0.82;;;;;;;11.53;100.00;100417.31;6182867;23;20031;-74
2024/04/05 00:28:13;;;;;;;3.42;0.63;;;;;;;11.50;100.00;100418.47;6183411;23;20031;-74
2024/04/05 00:30:41;;;;;;;1.17;0.65;;;;;;;11.45;100.00;100422.22;6183761;23;20084;-73
2024/04/05 00:33:07;;;;;;;4.38;0.65;;;;;;;11.45;100.00;100429.78;6193204;23;20084;-73
2024/04/05 00:35:37;;;;;;;1.75;0.77;;;;;;;11.46;100.00;100429.22;6192353;23;20016;-74
2024/04/05 00:38:03;;;;;;;2.70;0.73;;;;;;;11.47;100.00;100430.69;6189012;23;20017;-73
2024/04/05 00:40:31;;;;;;;1.67;0.40;;;;;;;11.50;100.00;100421.25;6182472;23;20039;-74
2024/04/05 00:43:02;;;;;;;3.08;0.85;;;;;;;11.47;100.00;100425.13;6206961;23;20146;-73
2024/04/05 00:45:30;;;;;;;2.03;0.68;;;;;;;11.47;100.00;100429.97;6157380;23;20032;-73
2024/04/05 00:47:56;;;;;;;1.73;0.50;;;;;;;11.48;100.00;100421.06;6181258;23;20060;-73
2024/04/05 00:50:24;;;;;;;1.80;0.85;;;;;;;11.52;100.00;100417.88;6181157;23;20395;-73
2024/04/05 00:52:53;;;;;;;2.80;0.60;;;;;;;11.52;100.00;100418.66;6181780;23;20024;-73
2024/04/05 00:55:21;;;;;;;2.35;0.60;;;;;;;11.54;100.00;100415.28;6181010;23;20343;-73
2024/04/05 00:57:48;;;;;;;1.80;0.63;;;;;;;11.57;100.00;100414.13;6181336;23;20027;-73
2024/04/05 01:00:18;;;;;;;2.30;0.60;;;;;;;11.56;100.00;100418.97;6181116;23;20020;-73
2024/04/05 01:02:45;;;;;;;1.73;0.47;;;;;;;11.57;100.00;100412.13;6181916;23;20020;-73
2024/04/05 01:05:14;;;;;;;6.82;1.05;;;;;;;11.61;100.00;100412.44;6180988;23;20091;-73
2024/04/05 01:07:42;;;;;;;2.50;0.65;;;;;;;11.60;100.00;100413.75;6157305;23;20029;-73
2024/04/05 01:10:12;;;;;;;4.68;0.73;;;;;;;11.71;100.00;100414.59;6181152;23;20036;-74
2024/04/05 01:12:38;;;;;;;7.53;1.00;;;;;;;11.68;100.00;100407.41;6205277;23;20028;-73
2024/04/05 01:15:06;;;;;;;4.05;0.88;;;;;;;11.70;100.00;100413.13;6180791;23;20020;-73
2024/04/05 01:17:34;;;;;;;2.13;0.77;;;;;;;11.68;100.00;100402.56;6155962;23;20463;-73
2024/04/05 01:20:04;;;;;;;2.60;0.73;;;;;;;11.65;100.00;100405.75;6180194;23;20020;-73
2024/04/05 01:22:40;;;;;;;3.15;0.60;;;;;;;11.67;100.00;100406.69;6180255;23;20047;-74
2024/04/05 01:25:09;;;;;;;1.05;0.50;;;;;;;11.67;100.00;100400.34;6180528;23;20044;-73
2024/04/05 01:27:35;;;;;;;3.75;0.40;;;;;;;11.72;100.00;100391.81;6181469;23;20020;-73
2024/04/05 01:30:02;;;;;;;5.50;0.88;;;;;;;11.77;100.00;100378.97;6181378;23;20111;-74
2024/04/05 01:32:29;;;;;;;3.65;1.33;;;;;;;11.84;100.00;100387.25;6183836;23;20028;-74
2024/04/05 01:34:57;;;;;;;2.05;0.52;;;;;;;11.79;100.00;100381.91;6197452;23;20036;-73
2024/04/05 01:37:23;;;;;;;4.43;0.60;;;;;;;11.77;100.00;100390.06;6198725;23;20068;-73
2024/04/05 01:39:52;;;;;;;1.52;0.68;;;;;;;11.78;100.00;100391.56;6203929;23;20028;-73
2024/04/05 01:42:21;;;;;;;2.33;0.52;;;;;;;11.86;100.00;100383.16;6170063;23;20028;-75
2024/04/05 01:44:49;;;;;;;3.03;0.57;;;;;;;11.87;100.00;100387.44;6181142;23;20028;-74
2024/04/05 01:47:15;;;;;;;2.28;0.57;;;;;;;11.86;100.00;100391.50;6156808;23;20107;-75
2024/04/05 01:49:43;;;;;;;2.63;0.63;;;;;;;11.86;100.00;100392.22;6181905;23;20099;-74
2024/04/05 01:52:10;;;;;;;4.15;0.32;;;;;;;11.93;100.00;100388.66;6182113;23;20032;-74
2024/04/05 01:54:39;;;;;;;2.13;0.52;;;;;;;11.97;100.00;100391.78;6181906;23;20035;-74
2024/04/05 01:57:05;;;;;;;2.05;0.52;;;;;;;11.96;100.00;100387.53;6180140;23;20471;-74
2024/04/05 01:59:34;;;;;;;2.05;0.40;;;;;;;11.91;100.00;100390.53;6182474;23;20024;-75
2024/04/05 02:02:01;;;;;;;1.03;0.40;;;;;;;11.94;100.00;100392.19;6180537;23;20020;-74
2024/04/05 02:04:29;;;;;;;2.65;0.43;;;;;;;11.93;100.00;100394.22;6181668;23;20259;-74
2024/04/05 02:06:55;;;;;;;4.00;1.15;;;;;;;11.94;100.00;100394.97;6180953;23;20075;-74
2024/04/05 02:09:23;;;;;;;4.88;1.38;;;;;;;11.96;100.00;100395.13;6156701;23;20227;-74
2024/04/05 02:11:49;;;;;;;3.70;0.95;;;;;;;11.93;100.00;100397.00;6180588;23;20021;-74
2024/04/05 02:14:16;;;;;;;1.58;0.65;;;;;;;11.94;100.00;100394.97;6181658;23;20055;-74
2024/04/05 02:16:44;;;;;;;10.82;0.73;;;;;;;11.95;100.00;100399.97;6206216;23;20047;-74
2024/04/05 02:19:13;;;;;;;1.23;0.60;;;;;;;11.93;100.00;100397.00;6182087;23;20027;-74
2024/04/05 02:21:40;;;;;;;;;;;;;;;11.98;100.00;100398.09;6181358;23;20028;-75
2024/04/05 02:24:08;;;;;;;0.60;0.25;;;;;;;12.00;100.00;100396.19;6156777;23;19990;-74
2024/04/05 02:26:34;;;;;;;2.22;0.60;;;;;;;12.08;100.00;100398.19;6181729;23;20024;-74
2024/04/05 02:29:01;;;;;;;1.65;0.70;;;;;;;12.00;100.00;100395.47;6183012;23;20103;-74
2024/04/05 02:31:27;;;;;;;1.20;0.45;;;;;;;12.00;100.00;100404.56;6183043;23;20402;-74
2024/04/05 02:33:57;;;;;;;3.15;0.70;;;;;;;12.03;100.00;100405.44;6207564;23;20632;-74
2024/04/05 02:36:23;;;;;;;1.33;0.68;;;;;;;12.05;100.00;100403.56;6183283;23;20463;-73
2024/04/05 02:38:51;;;;;;;2.20;0.40;;;;;;;12.03;100.00;100411.00;6189435;23;20034;-73
2024/04/05 02:41:18;;;;;;;5.35;0.95;;;;;;;12.03;100.00;100414.53;6201970;23;20036;-74
2024/04/05 02:43:46;;;;;;;3.42;0.40;;;;;;;12.11;100.00;100416.50;6183124;23;20528;-74
2024/04/05 02:46:13;;;;;;;3.03;1.05;;;;;;;12.09;100.00;100419.09;6182709;23;20024;-74
2024/04/05 02:48:40;;;;;;;3.78;0.70;;;;;;;12.06;100.00;100426.56;6182538;23;20043;-74
2024/04/05 02:51:10;;;;;;;2.10;0.55;;;;;;;12.15;100.00;100428.69;6182662;23;20107;-74
2024/04/05 02:53:37;;;;;;;4.90;1.30;;;;;;;12.20;100.00;100424.94;6182609;23;20462;-74
2024/04/05 02:56:04;;;;;;;2.90;0.73;;;;;;;12.14;100.00;100423.69;6182401;23;20251;-74
2024/04/05 02:58:32;;;;;;;1.58;0.40;;;;;;;12.12;100.00;100423.56;6207939;23;20035;-74
2024/04/05 03:00:58;;;;;;;4.20;1.10;;;;;;;12.11;100.00;100427.63;6182183;23;20029;-74
2024/04/05 03:03:27;;;;;;;5.25;0.90;;;;;;;12.14;100.00;100426.47;6182857;23;20032;-74
2024/04/05 03:05:54;;;;;;;1.83;0.77;;;;;;;12.15;100.00;100425.19;6182419;23;20051;-73
2024/04/05 03:08:24;;;;;;;4.13;0.80;;;;;;;12.16;100.00;100430.16;6159067;23;20024;-73
2024/04/05 03:10:50;;;;;;;1.05;0.47;;;;;;;12.08;100.00;100428.78;6183591;23;20036;-74
2024/04/05 03:13:18;;;;;;;3.90;1.15;;;;;;;12.08;100.00;100437.13;6182856;23;20024;-73
2024/04/05 03:15:46;;;;;;;1.73;0.60;;;;;;;12.05;100.00;100420.25;6183502;23;20024;-75
2024/04/05 03:18:14;;;;;;;9.90;0.73;;;;;;;12.02;100.00;100431.78;6158949;23;20028;-75
2024/04/05 03:20:42;;;;;;;1.60;0.63;;;;;;;12.09;100.00;100421.88;6189816;23;20028;-73
2024/04/05 03:23:11;;;;;;;2.83;0.70;;;;;;;12.03;100.00;100417.31;6187128;23;20031;-75
2024/04/05 03:25:39;;;;;;;4.80;0.60;;;;;;;12.07;100.00;100418.94;6188905;23;20363;-74
2024/04/05 03:28:07;;;;;;;4.82;0.55;;;;;;;12.05;100.00;100414.69;6188358;23;20024;-74
2024/04/05 03:30:35;;;;;;;1.00;0.40;;;;;;;12.07;100.00;100416.16;6187331;23;20075;-75
2024/04/05 03:33:04;;;;;;;0.88;0.40;;;;;;;12.15;100.00;100414.06;6185760;23;20047;-75
2024/04/05 03:35:30;;;;;;;3.08;0.70;;;;;;;12.12;100.00;100406.88;6183482;23;20024;-75
2024/04/05 03:37:58;;;;;;;4.32;0.88;;;;;;;12.13;100.00;100403.50;6183043;23;20471;-75
2024/04/05 03:40:25;;;;;;;0.90;0.30;;;;;;;12.14;100.00;100413.31;6183922;23;20028;-75
2024/04/05 03:42:54;;;;;;;1.00;0.50;;;;;;;12.15;100.00;100427.97;6186592;23;20526;-75
2024/04/05 03:45:21;;;;;;;5.28;1.17;;;;;;;12.18;100.00;100427.53;6204095;23;20233;-74
2024/04/05 03:47:48;;;;;;;2.38;0.88;;;;;;;12.17;100.00;100426.09;6207514;23;20021;-74
2024/04/05 03:50:16;;;;;;;2.45;0.63;;;;;;;12.19;100.00;100426.25;6179015;23;20024;-74
2024/04/05 03:52:46;;;;;;;5.60;0.70;;;;;;;12.17;100.00;100420.53;6183771;23;20025;-74
2024/04/05 03:55:13;;;;;;;1.02;0.45;;;;;;;12.13;100.00;100425.00;6197637;23;20024;-73
2024/04/05 03:57:42;;;;;;;0.75;0.22;;;;;;;12.13;100.00;100427.78;6203400;23;20024;-73
2024/04/05 04:00:11;;;;;;;1.85;0.85;;;;;;;12.16;100.00;100427.38;6189328;23;20461;-74
2024/04/05 04:02:39;;;;;;;5.07;1.13;;;;;;;12.14;100.00;100423.69;6182617;23;20055;-73
2024/04/05 04:05:05;;;;;;;2.58;0.70;;;;;;;12.11;100.00;100416.50;6183410;23;20020;-74
2024/04/05 04:07:33;;;;;;;4.25;0.77;;;;;;;12.14;100.00;100423.69;6189055;23;20445;-73
2024/04/05 04:10:00;;;;;;;4.00;0.60;;;;;;;12.17;100.00;100433.69;6207203;23;20056;-73
2024/04/05 04:12:31;;;;;;;2.30;0.52;;;;;;;12.15;100.00;100427.97;6203593;23;20048;-74
2024/04/05 04:14:57;;;;;;;4.97;0.70;;;;;;;12.14;100.00;100416.09;6182852;23;20610;-74
2024/04/05 04:17:27;;;;;;;0.88;0.43;;;;;;;12.14;100.00;100416.09;6183811;23;20108;-74
2024/04/05 04:19:58;;;;;;;1.60;0.55;;;;;;;12.18;100.00;100415.69;6182650;23;20021;-74
2024/04/05 04:22:26;;;;;;;1.30;0.52;;;;;;;12.17;100.00;100414.97;6156454;23;20770;-73
2024/04/05 04:24:52;;;;;;;1.92;0.52;;;;;;;12.17;100.00;100414.97;6182710;23;20031;-74
2024/04/05 04:27:20;;;;;;;2.75;0.68;;;;;;;12.19;100.00;100412.34;6208718;23;20028;-74
2024/04/05 04:29:46;;;;;;;7.03;0.70;;;;;;;12.21;100.00;100417.31;6182923;23;20028;-73
2024/04/05 04:32:15;;;;;;;3.60;0.85;;;;;;;12.20;100.00;100413.06;6158822;23;20087;-74
2024/04/05 04:34:43;;;;;;;7.05;0.90;;;;;;;12.27;100.00;100415.78;6183265;23;20032;-73
2024/04/05 04:37:11;;;;;;;2.50;0.73;;;;;;;12.27;100.00;100403.91;6158421;23;20036;-74
2024/04/05 04:39:39;;;;;;;3.90;0.90;;;;;;;12.29;100.00;100414.47;6182417;23;20032;-74
2024/04/05 04:42:08;;;;;;;1.17;0.47;;;;;;;12.25;100.00;100412.09;6181517;23;20361;-74
2024/04/05 04:44:36;;;;;;;1.75;0.50;;;;;;;12.20;100.00;100426.97;6182868;23;20083;-74
2024/04/05 04:47:04;;;;;;;2.58;0.50;;;;;;;12.26;100.00;100419.13;6181888;23;20028;-74
2024/04/05 04:49:31;;;;;;;1.08;0.40;;;;;;;12.16;100.00;100423.88;6193273;23;20028;-74
2024/04/05 04:52:00;;;;;;;4.25;0.80;;;;;;;12.12;100.00;100413.16;6195269;23;20028;-74
2024/04/05 04:54:28;;;;;;;0.87;0.40;;;;;;;12.08;100.00;100404.47;6184820;23;20083;-74
2024/04/05 04:56:56;;;;;;;3.58;0.50;;;;;;;11.97;100.00;100396.63;6181204;23;20263;-74
2024/04/05 04:59:28;;;;;;;2.42;0.60;;;;;;;11.93;100.00;100404.63;6174233;23;20035;-73
2024/04/05 05:01:56;;;;;;;1.83;0.63;;;;;;;11.90;100.00;100409.28;6188041;23;20021;-74
2024/04/05 05:04:23;;;;;;;5.32;0.57;;;;;;;11.86;100.00;100414.47;6180609;23;20017;-74
2024/04/05 05:06:52;;;;;;;4.60;0.82;;;;;;;11.93;100.00;100401.84;6180667;23;20047;-74
2024/04/05 05:09:20;;;;;;;1.35;0.45;;;;;;;11.87;100.00;100396.53;6180576;23;20101;-74
2024/04/05 05:11:47;;;;;;;3.05;1.00;;;;;;;11.89;100.00;100390.38;6156620;23;20518;-75
2024/04/05 05:14:15;;;;;;;6.00;1.33;;;;;;;11.87;100.00;100393.75;6181730;23;20509;-74
2024/04/05 05:16:42;;;;;;;3.42;0.90;;;;;;;11.94;100.00;100392.94;6156851;23;20087;-75
2024/04/05 05:19:09;;;;;;;8.80;1.00;;;;;;;11.94;100.00;100390.16;6156782;23;20738;-74
2024/04/05 05:21:37;;;;;;;1.88;0.70;;;;;;;12.00;100.00;100401.75;6180217;23;20033;-74
2024/04/05 05:24:05;;;;;;;1.75;0.50;;;;;;;12.10;100.00;100409.47;6181685;23;20031;-74
2024/04/05 05:26:35;;;;;;;10.23;1.13;;;;;;;12.15;100.00;100411.28;6156033;23;20033;-74
2024/04/05 05:29:01;;;;;;;3.78;0.90;;;;;;;12.23;100.00;100417.50;6180331;23;20025;-74
2024/04/05 05:31:31;;;;;;;3.42;0.68;;;;;;;12.33;100.00;100418.31;6181012;23;20070;-75
2024/04/05 05:33:59;;;;;;;2.00;0.65;;;;;;;12.36;100.00;100417.16;6206678;23;20044;-74
2024/04/05 05:36:27;;;;;;;3.13;1.08;;;;;;;12.38;100.00;100411.03;6157963;23;20037;-74
2024/04/05 05:38:54;;;;;;;6.25;0.55;;;;;;;12.46;100.00;100414.44;6157184;23;20017;-73
2024/04/05 05:41:21;;;;;;;6.07;1.25;;;;;;;12.52;100.00;100408.66;6182274;23;20056;-73
2024/04/05 05:43:49;;;;;;;2.47;1.00;;;;;;;12.51;100.00;100412.75;6158234;23;20024;-75
2024/04/05 05:46:16;;;;;;;1.38;0.50;;;;;;;12.51;100.00;100407.16;6182153;23;20024;-75
2024/04/05 05:48:43;;;;;;;4.88;1.10;;;;;;;12.56;100.00;100406.19;6208902;23;20104;-75
2024/04/05 05:51:11;;;;;;;6.53;0.88;;;;;;;12.51;100.00;100407.16;6207813;23;20028;-72
2024/04/05 05:53:37;;;;;;;8.55;1.02;;;;;;;12.43;100.00;100416.34;6208627;23;20166;-72
2024/04/05 05:56:07;;;;;;;2.45;0.70;;;;;;;12.44;100.00;100406.69;6182721;23;20028;-73
2024/04/05 05:58:35;;;;;;;3.65;0.60;;;;;;;12.52;100.00;100395.47;6208361;23;20029;-73
2024/04/05 06:01:07;;;;;;;4.20;0.60;;;;;;;12.50;100.00;100394.56;6204775;23;20031;-74
2024/04/05 06:03:34;;;;;;;3.67;0.82;;;;;;;12.51;100.00;100390.47;6187164;23;20020;-74
2024/04/05 06:06:02;;;;;;;2.95;0.90;;;;;;;12.57;100.00;100391.69;6183504;23;20344;-74
2024/04/05 06:08:29;;;;;;;2.10;0.93;;;;;;;12.66;100.00;100398.63;6159104;23;20024;-75
2024/04/05 06:10:56;;;;;;;9.60;1.25;;;;;;;12.69;100.00;100387.09;6188742;23;20031;-75
2024/04/05 06:13:23;;;;;;;2.15;0.68;;;;;;;12.77;100.00;100400.19;6190943;23;20028;-74
2024/04/05 06:15:55;;;;;;;1.63;0.80;;;;;;;12.87;100.00;100398.94;6198481;23;20020;-75
2024/04/05 06:18:25;;;;;;;4.85;1.15;;;;;;;13.02;100.00;100392.41;6186047;23;20060;-78
2024/04/05 06:20:53;;;;;;;5.50;0.60;;;;;;;12.97;100.00;100382.28;6183607;23;20056;-76
2024/04/05 06:23:23;;;;;;;3.80;0.70;;;;;;;13.02;100.00;100381.28;6185465;23;20032;-75
2024/04/05 06:25:55;;;;;;;2.80;0.70;;;;;;;13.08;100.00;100383.78;6182927;23;20020;-74
2024/04/05 06:28:21;;;;;;;1.25;0.50;;;;;;;13.11;100.00;100382.66;6183671;23;20031;-74
2024/04/05 06:30:50;;;;;;;1.38;0.68;;;;;;;13.12;100.00;100392.47;6182440;23;20502;-74
2024/04/05 06:33:17;;;;;;;6.32;0.68;;;;;;;13.24;100.00;100401.03;6183159;23;20024;-74
2024/04/05 06:35:46;;;;;;;1.27;0.50;;;;;;;13.38;100.00;100395.81;6182990;23;20025;-75
2024/04/05 06:38:14;;;;;;;2.15;0.63;;;;;;;13.43;100.00;100390.00;6183715;23;20026;-74
2024/04/05 06:40:42;;;;;;;4.22;0.65;;;;;;;13.61;100.00;100403.84;6183518;23;20020;-74
2024/04/05 06:43:11;;;;;;;2.10;0.65;;;;;;;14.15;100.00;100409.97;6158456;23;20024;-74
2024/04/05 06:45:39;;;;;;;1.92;0.57;;;;;;;14.87;100.00;100400.44;6182810;23;20028;-74
2024/04/05 06:48:07;;;;;;;6.05;0.90;;;;;;;15.51;100.00;100392.25;6157978;23;20059;-74
2024/04/05 06:50:34;;;;;;;2.30;0.40;;;;;;;15.81;100.00;100384.47;6182494;23;20031;-74
2024/04/05 06:53:02;;;;;;;2.38;0.98;;;;;;;15.85;100.00;100379.13;6182565;23;20051;-73
2024/04/05 06:55:29;;;;;;;6.20;0.70;;;;;;;15.73;100.00;100378.34;6182545;23;20115;-75
2024/04/05 06:57:56;;;;;;;6.25;1.20;;;;;;;15.87;100.00;100382.06;6181948;23;20036;-76
2024/04/05 07:00:25;;;;;;;1.92;0.70;;;;;;;16.03;100.00;100374.03;6184399;23;20210;-73
2024/04/05 07:02:54;;;;;;;6.93;0.67;;;;;;;16.10;100.00;100373.09;6191308;23;20422;-76
2024/04/05 07:05:24;;;;;;;2.30;0.70;;;;;;;16.17;100.00;100372.16;6182689;23;20029;-75
2024/04/05 07:07:51;;;;;;;1.25;0.43;;;;;;;16.26;100.00;100381.78;6183031;23;20301;-75
2024/04/05 07:10:20;;;;;;;3.58;0.68;;;;;;;16.29;100.00;100380.56;6182787;23;20186;-76
2024/04/05 07:12:50;;;;;;;3.55;0.75;;;;;;;16.21;100.00;100371.66;6184529;23;20308;-76
2024/04/05 07:15:17;;;;;;;;;;;;;;;16.21;100.00;100358.41;6186073;23;20025;-75
2024/04/05 07:17:48;;;;;;;4.32;0.50;;;;;;;16.12;100.00;100348.00;6187381;23;19916;-74
2024/04/05 07:20:18;;;;;;;2.70;0.57;;;;;;;16.39;100.00;100344.09;6159417;23;20052;-75
2024/04/05 07:22:46;;;;;;;1.95;0.47;;;;;;;16.46;100.00;100355.06;6172205;23;20088;-73
2024/04/05 07:25:13;;;;;;;4.80;0.77;;;;;;;16.65;100.00;100342.97;6200460;23;20066;-73
2024/04/05 07:27:48;;;;;;;1.80;0.43;;;;;;;16.79;100.00;100350.81;6164976;23;20027;-75
2024/04/05 07:30:17;;;;;;;5.22;0.50;;;;;;;16.85;100.00;100351.19;6183104;23;20020;-75
2024/04/05 07:32:45;;;;;;;3.17;0.55;;;;;;;16.79;100.00;100339.59;6182207;23;20168;-74
2024/04/05 07:35:14;;;;;;;3.53;0.90;;;;;;;17.00;100.00;100342.31;6182128;23;20055;-75
2024/04/05 07:37:40;;;;;;;2.63;0.85;;;;;;;17.00;100.00;100342.31;6182155;23;20132;-75
2024/04/05 07:40:09;;;;;;;2.63;0.50;;;;;;;16.95;100.00;100349.72;6182027;23;20020;-74
2024/04/05 07:42:35;;;;;;;0.35;0.25;;;;;;;17.28;100.00;100340.47;6181632;23;20032;-74
2024/04/05 07:45:05;;;;;;;1.00;0.28;;;;;;;17.39;100.00;100350.25;6181249;23;20027;-76
2024/04/05 07:47:33;;;;;;;0.95;0.20;;;;;;;17.39;100.00;100347.44;6157318;23;20067;-74
2024/04/05 07:50:00;;;;;;;2.17;0.43;;;;;;;17.12;100.00;100353.53;6181760;23;20056;-73
2024/04/05 07:52:27;;;;;;;2.03;0.43;;;;;;;17.18;100.00;100346.25;6182507;23;20028;-75
2024/04/05 07:54:55;;;;;;;3.47;0.57;;;;;;;17.36;100.00;100357.09;6183039;23;20502;-74
2024/04/05 07:57:22;;;;;;;5.35;0.80;;;;;;;17.35;100.00;100356.31;6182679;23;20461;-74
2024/04/05 07:59:51;;;;;;;2.17;0.50;;;;;;;17.38;100.00;100362.78;6157892;23;20100;-75
2024/04/05 08:02:27;;;;;;;3.88;0.77;;;;;;;17.47;100.00;100353.53;6163990;23;20024;-76
2024/04/05 08:04:56;;;;;;;3.90;0.30;;;;;;;17.33;100.00;100361.09;6167712;23;20028;-77
2024/04/05 08:07:23;;;;;;;4.90;0.67;;;;;;;17.58;100.00;100364.00;6191144;23;20653;-76
2024/04/05 08:09:52;;;;;;;2.28;0.60;;;;;;;17.60;100.00;100366.91;6182250;23;20024;-77
2024/04/05 08:12:19;;;;;;;1.35;0.52;;;;;;;17.40;100.00;100365.72;6157052;23;20028;-75
2024/04/05 08:14:47;;;;;;;1.08;0.20;;;;;;;17.61;100.00;100354.38;6180991;23;20459;-73
2024/04/05 08:17:14;;;;;;;3.10;0.28;;;;;;;18.19;100.00;100352.03;6157546;23;20025;-76
2024/04/05 08:19:47;;;;;;;0.90;0.30;;;;;;;18.96;100.00;100358.34;6182001;23;20020;-76
2024/04/05 08:22:16;;;;;;;1.95;0.60;;;;;;;19.37;100.00;100354.16;6181577;23;20107;-76
2024/04/05 08:24:45;;;;;;;0.73;0.25;;;;;;;19.68;100.00;100351.56;6182329;23;20059;-76
2024/04/05 08:27:12;;;;;;;2.38;0.50;;;;;;;19.85;100.00;100347.44;6183193;23;20036;-76
2024/04/05 08:29:43;;;;;;;1.85;0.40;;;;;;;20.14;100.00;100357.28;6175586;23;20021;-72
2024/04/05 08:32:10;;;;;;;3.47;0.50;;;;;;;20.02;100.00;100353.88;6176066;23;20028;-76
2024/04/05 08:34:45;;;;;;;4.55;0.45;;;;;;;20.17;100.00;100339.13;6187440;23;20025;-75
2024/04/05 08:37:11;;;;;;;1.35;0.50;;;;;;;20.15;100.00;100339.78;6182632;23;20087;-75
2024/04/05 08:39:39;;;;;;;7.53;1.02;;;;;;;20.57;100.00;100329.09;6180775;23;20017;-75
2024/04/05 08:42:11;;;;;;;0.82;0.38;;;;;;;20.32;100.00;100329.97;6181474;23;20036;-75
2024/04/05 08:44:42;;;;;;;1.83;0.32;;;;;;;20.21;100.00;100319.63;6205429;23;20456;-75
2024/04/05 08:47:09;;;;;;;1.58;0.30;;;;;;;20.26;100.00;100312.09;6181905;23;20032;-75
2024/04/05 08:49:38;;;;;;;1.63;0.40;;;;;;;20.83;100.00;100304.16;6156881;23;20028;-76
2024/04/05 08:52:08;;;;;;;4.67;0.73;;;;;;;20.98;100.00;100296.34;6180977;23;20047;-76
2024/04/05 08:54:36;;;;;;;1.40;0.30;;;;;;;20.77;100.00;100301.09;6181413;23;20028;-76
2024/04/05 08:57:05;;;;;;;1.83;0.50;;;;;;;21.45;100.00;100296.28;6180764;23;20667;-76
2024/04/05 08:59:33;;;;;;;2.17;0.57;;;;;;;21.58;100.00;100299.63;6181247;23;20695;-75
2024/04/05 09:02:01;;;;;;;3.15;0.50;;;;;;;21.59;100.00;100303.91;6183108;23;20370;-75
2024/04/05 09:04:36;;;;;;;4.50;0.40;;;;;;;21.19;100.00;100309.22;6164393;23;20147;-75
2024/04/05 09:08:09;;;;;;;3.67;0.70;;;;;;;21.29;100.00;100292.75;6192107;23;20029;-76
2024/04/05 09:11:08;;;;;;;1.77;0.50;;;;;;;21.50;100.00;100290.81;6189996;23;20841;-76
2024/04/05 09:13:35;;;;;;;0.50;0.17;;;;;;;21.66;100.00;100294.31;6185672;23;20490;-74
2024/04/05 09:16:03;;;;;;;1.48;0.40;;;;;;;22.31;100.00;100288.47;6186581;23;20028;-76
2024/04/05 09:18:31;;;;;;;2.85;0.55;;;;;;;22.61;100.00;100287.44;6210376;23;20048;-75
2024/04/05 09:21:00;;;;;;;1.27;0.30;;;;;;;21.84;100.00;100275.28;6156901;23;20594;-76
2024/04/05 09:23:30;;;;;;;1.42;0.40;;;;;;;20.99;100.00;100287.25;6158909;23;20059;-76
2024/04/05 09:26:03;;;;;;;2.92;0.40;;;;;;;20.72;100.00;100282.53;6182070;23;20029;-75
2024/04/05 09:28:30;;;;;;;3.15;0.40;;;;;;;20.53;100.00;100278.13;6190224;23;20047;-75
2024/04/05 09:31:00;;;;;;;6.38;0.50;;;;;;;21.07;100.00;100286.13;6191336;23;20012;-75
2024/04/05 09:33:27;;;;;;;1.52;0.47;;;;;;;21.38;100.00;100288.91;6192378;23;20025;-74
2024/04/05 09:35:56;;;;;;;2.05;0.57;;;;;;;21.30;100.00;100294.22;6189477;23;20032;-74
2024/04/05 09:38:24;;;;;;;1.35;0.40;;;;;;;21.74;100.00;100286.19;6183283;23;20051;-76
2024/04/05 09:40:54;;;;;;;2.22;0.80;;;;;;;21.51;100.00;100289.44;6158997;23;20024;-76
2024/04/05 09:43:24;;;;;;;2.10;0.40;;;;;;;22.17;100.00;100279.41;6183613;23;20467;-76
2024/04/05 09:46:01;;;;;;;0.35;0.13;;;;;;;22.16;100.00;100275.13;6158687;23;20028;-76
2024/04/05 09:48:32;;;;;;;0.63;0.13;;;;;;;21.68;100.00;100272.53;6181040;23;20020;-76
2024/04/05 09:51:13;;;;;;;1.58;0.68;;;;;;;22.01;100.00;100275.94;6183198;23;20027;-77
2024/04/05 09:58:01;;;;;;;1.33;0.40;;;;;;;21.43;98.99;100270.78;6149516;23;20110;-76
2024/04/05 10:00:28;;;;;;;1.08;0.10;;;;;;;21.33;97.63;100261.16;6184177;23;20051;-75
2024/04/05 10:07:53;;;;;;;3.28;0.30;;;;;;;21.13;100.00;100261.03;6205953;23;20031;-77
2024/04/05 10:10:45;;;;;;;1.50;0.30;;;;;;;21.05;100.00;100245.22;6185454;23;20087;-76
2024/04/05 10:13:39;;;;;;;3.13;0.98;;;;;;;20.90;100.00;100237.50;6183778;23;20020;-77
2024/04/05 10:16:33;;;;;;;3.53;0.50;;;;;;;21.02;100.00;100235.22;6179850;23;20032;-77
2024/04/05 10:53:16;;;;;;;0.45;0.15;;;;;;;21.48;100.00;100232.91;5804006;24;20096;-75
2024/04/05 10:55:45;;;;;;;3.42;0.38;;;;;;;21.68;100.00;100226.63;5880369;23;20032;-76
2024/04/05 10:58:13;;;;;;;2.15;0.47;;;;;;;21.54;100.00;100228.88;5982769;23;20581;-76
2024/04/05 11:00:42;;;;;;;1.13;0.30;;;;;;;21.64;100.00;100227.22;6080522;23;20022;-75
2024/04/05 11:03:10;;;;;;;1.60;0.40;;;;;;;21.85;100.00;100217.44;6087420;23;20247;-76
2024/04/05 11:05:37;;;;;;;1.73;0.30;;;;;;;21.97;99.87;100222.84;6062520;23;20023;-77
2024/04/05 11:08:05;;;;;;;2.67;0.40;;;;;;;21.92;96.69;100206.38;6189871;23;20024;-76
2024/04/05 11:10:33;;;;;;;2.45;0.45;;;;;;;22.08;100.00;100209.81;6182921;23;20613;-77
2024/04/05 11:13:02;;;;;;;0.80;0.20;;;;;;;21.73;93.53;100194.38;6158381;23;20071;-76
2024/04/05 11:15:28;;;;;;;0.70;0.30;;;;;;;21.57;96.66;100188.09;6182767;23;20592;-76
2024/04/05 11:18:02;;;;;;;3.13;0.38;;;;;;;21.78;93.81;100184.69;6187383;23;20534;-76
2024/04/05 11:20:31;;;;;;;1.33;0.43;;;;;;;21.74;99.39;100186.63;6187759;23;20025;-76
2024/04/05 11:23:02;;;;;;;1.45;0.32;;;;;;;21.56;93.51;100180.97;6186608;23;20028;-77
2024/04/05 11:25:29;;;;;;;0.73;0.40;;;;;;;21.43;96.78;100174.13;6189127;23;20028;-79
2024/04/05 11:27:57;;;;;;;1.08;0.25;;;;;;;21.18;97.49;100180.84;6188218;23;20047;-76
2024/04/05 11:30:25;;;;;;;1.90;0.60;;;;;;;21.01;94.94;100182.25;6182497;23;20017;-76
2024/04/05 11:32:53;;;;;;;0.65;0.20;;;;;;;20.97;92.42;100177.19;6181557;23;20761;-76
2024/04/05 11:35:24;;;;;;;0.60;0.32;;;;;;;20.73;99.96;100168.41;6181978;23;20028;-76
2024/04/05 11:37:55;;;;;;;1.27;0.20;;;;;;;20.49;98.48;100173.69;6132681;23;20087;-76
2024/04/05 11:40:21;;;;;;;1.92;0.20;;;;;;;20.59;96.06;100168.50;6182234;23;20025;-75
2024/04/05 11:42:50;;;;;;;0.90;0.30;;;;;;;20.08;98.96;100145.78;6182369;23;20135;-76
2024/04/05 11:45:18;;;;;;;0.50;0.30;;;;;;;19.96;100.00;100123.44;6157748;23;20028;-75
2024/04/05 11:47:46;;;;;;;1.95;0.20;;;;;;;19.82;100.00;100136.84;6157603;23;20260;-75
2024/04/05 11:50:13;;;;;;;1.70;0.20;;;;;;;20.05;97.62;100161.13;6157023;23;20020;-75
2024/04/05 11:52:42;;;;;;;1.48;0.38;;;;;;;20.03;99.36;100158.22;6157916;23;20359;-77
2024/04/05 11:55:09;;;;;;;1.05;0.22;;;;;;;20.13;93.25;100156.59;6181777;23;20135;-76
2024/04/05 11:57:36;;;;;;;1.52;0.65;;;;;;;20.23;94.41;100158.41;6181962;23;20028;-76
2024/04/05 12:00:04;;;;;;;3.10;0.45;;;;;;;20.38;92.42;100154.88;6181267;23;20024;-76
2024/04/05 12:02:40;;;;;;;3.90;0.50;;;;;;;20.63;94.97;100159.50;6183215;23;20594;-76
2024/04/05 12:05:09;;;;;;;2.73;0.20;;;;;;;21.04;89.31;100158.41;6176462;23;20693;-77
2024/04/05 12:07:41;;;;;;;2.25;0.43;;;;;;;21.35;86.36;100160.38;6176365;23;20017;-77
2024/04/05 12:10:09;;;;;;;1.25;0.30;;;;;;;22.42;87.03;100159.53;6151260;23;20029;-76